createdAt,value
2023-09-08T00:01:44.806Z,101414.28
2023-09-08T00:04:12.789Z,101408.25
2023-09-08T00:06:39.447Z,101406.59
2023-09-08T00:09:06.057Z,101403.91
2023-09-08T00:11:32.562Z,101400.56
2023-09-08T00:13:59.100Z,101407.00
2023-09-08T00:16:25.760Z,101409.91
2023-09-08T00:18:52.331Z,101405.97
2023-09-08T00:21:20.184Z,101408.44
2023-09-08T00:23:46.662Z,101411.78
2023-09-08T00:26:13.141Z,101407.84
2023-09-08T00:28:39.596Z,101417.59
2023-09-08T00:31:06.080Z,101413.03
2023-09-08T00:33:32.706Z,101411.16
2023-09-08T00:35:59.318Z,101411.56
2023-09-08T00:38:27.433Z,101414.25
2023-09-08T00:40:54.069Z,101418.81
2023-09-08T00:43:20.558Z,101419.19
2023-09-08T00:45:47.758Z,101422.09
2023-09-08T00:48:14.514Z,101411.13
2023-09-08T00:50:41.300Z,101414.22
2023-09-08T00:53:08.565Z,101408.81
2023-09-08T00:55:36.961Z,101407.16
2023-09-08T00:58:03.773Z,101406.13
2023-09-08T01:00:30.330Z,101405.28
2023-09-08T01:02:56.892Z,101397.16
2023-09-08T01:05:23.481Z,101399.47
2023-09-08T01:07:51.633Z,101398.00
2023-09-08T01:10:18.541Z,101397.56
2023-09-08T01:12:46.419Z,101399.66
2023-09-08T01:15:12.934Z,101406.69
2023-09-08T01:17:39.527Z,101401.69
2023-09-08T01:20:14.235Z,101407.28
2023-09-08T01:22:54.735Z,101403.97
2023-09-08T01:25:23.427Z,101409.78
2023-09-08T01:27:51.894Z,101414.53
2023-09-08T01:30:19.442Z,101414.53
2023-09-08T01:32:46.645Z,101414.53
2023-09-08T01:35:13.720Z,101411.19
2023-09-08T01:37:46.277Z,101404.56
2023-09-08T01:40:13.564Z,101405.16
2023-09-08T01:42:42.150Z,101408.25
2023-09-08T01:45:09.600Z,101408.69
2023-09-08T01:47:36.449Z,101405.53
2023-09-08T01:50:03.213Z,101406.59
2023-09-08T01:52:29.746Z,101405.09
2023-09-08T01:54:56.300Z,101406.56
2023-09-08T01:57:22.930Z,101404.06
2023-09-08T01:59:50.738Z,101397.84
2023-09-08T02:02:17.213Z,101405.94
2023-09-08T02:04:43.756Z,101401.09
2023-09-08T02:07:10.376Z,101397.56
2023-09-08T02:09:38.791Z,101406.47
2023-09-08T02:12:05.934Z,101410.22
2023-09-08T02:14:32.463Z,101398.00
2023-09-08T02:17:00.403Z,101392.34
2023-09-08T02:19:26.908Z,101397.31
2023-09-08T02:21:53.521Z,101390.69
2023-09-08T02:24:20.092Z,101395.22
2023-09-08T02:26:46.763Z,101392.34
2023-09-08T02:29:13.263Z,101400.44
2023-09-08T02:31:40.610Z,101395.81
2023-09-08T02:34:08.495Z,101390.81
2023-09-08T02:36:35.033Z,101389.38
2023-09-08T02:39:01.598Z,101389.16
2023-09-08T02:41:28.076Z,101391.63
2023-09-08T02:43:54.588Z,101392.84
2023-09-08T02:46:21.135Z,101395.13
2023-09-08T02:48:47.671Z,101397.56
2023-09-08T02:51:15.528Z,101396.72
2023-09-08T02:53:42.071Z,101393.94
2023-09-08T02:56:08.617Z,101394.97
2023-09-08T02:58:35.399Z,101397.03
2023-09-08T03:01:11.259Z,101397.19
2023-09-08T03:03:37.887Z,101401.09
2023-09-08T03:06:04.620Z,101395.72
2023-09-08T03:08:32.610Z,101389.72
2023-09-08T03:11:00.074Z,101390.09
2023-09-08T03:13:26.687Z,101384.72
2023-09-08T03:15:53.346Z,101393.63
2023-09-08T03:18:19.828Z,101389.09
2023-09-08T03:20:49.458Z,101389.91
2023-09-08T03:23:16.016Z,101388.44
2023-09-08T03:25:44.198Z,101393.56
2023-09-08T03:28:10.724Z,101389.63
2023-09-08T03:30:37.281Z,101383.97
2023-09-08T03:33:04.047Z,101384.97
2023-09-08T03:35:30.684Z,101385.84
2023-09-08T03:37:57.205Z,101383.06
2023-09-08T03:40:23.767Z,101373.66
2023-09-08T03:42:51.643Z,101373.59
2023-09-08T03:45:18.278Z,101379.94
2023-09-08T03:47:44.840Z,101384.44
2023-09-08T03:50:11.433Z,101383.34
2023-09-08T03:52:38.002Z,101384.13
2023-09-08T03:55:05.133Z,101379.13
2023-09-08T03:57:31.653Z,101384.88
2023-09-08T03:59:59.472Z,101376.94
2023-09-08T04:02:26.056Z,101383.75
2023-09-08T04:04:52.812Z,101373.38
2023-09-08T04:07:19.332Z,101385.78
2023-09-08T04:09:45.818Z,101380.41
2023-09-08T04:12:12.398Z,101384.13
2023-09-08T04:14:38.979Z,101385.78
2023-09-08T04:17:06.864Z,101382.81
2023-09-08T04:19:34.816Z,101383.19
2023-09-08T04:22:01.512Z,101386.72
2023-09-08T04:24:28.099Z,101376.44
2023-09-08T04:26:54.695Z,101383.47
2023-09-08T04:29:21.174Z,101374.19
2023-09-08T04:31:47.895Z,101378.38
2023-09-08T04:34:15.834Z,101379.81
2023-09-08T04:36:42.368Z,101380.47
2023-09-08T04:39:08.929Z,101371.75
2023-09-08T04:41:35.477Z,101382.78
2023-09-08T04:44:01.986Z,101375.94
2023-09-08T04:46:28.520Z,101376.75
2023-09-08T04:48:55.127Z,101381.47
2023-09-08T04:51:23.003Z,101372.59
2023-09-08T04:53:49.528Z,101372.41
2023-09-08T04:56:16.099Z,101383.81
2023-09-08T04:58:42.654Z,101383.63
2023-09-08T05:01:09.213Z,101381.94
2023-09-08T05:03:35.952Z,101382.78
2023-09-08T05:06:02.586Z,101379.25
2023-09-08T05:08:30.473Z,101381.94
2023-09-08T05:10:57.021Z,101389.38
2023-09-08T05:13:30.665Z,101393.44
2023-09-08T05:15:58.108Z,101388.47
2023-09-08T05:18:24.657Z,101383.75
2023-09-08T05:20:51.219Z,101391.41
2023-09-08T05:23:17.699Z,101386.69
2023-09-08T05:25:45.797Z,101389.38
2023-09-08T05:28:12.319Z,101395.75
2023-09-08T05:30:38.949Z,101396.78
2023-09-08T05:33:05.757Z,101397.06
2023-09-08T05:35:32.351Z,101391.69
2023-09-08T05:37:58.918Z,101393.34
2023-09-08T05:40:25.563Z,101399.97
2023-09-08T05:42:53.496Z,101391.53
2023-09-08T05:45:20.036Z,101399.25
2023-09-08T05:47:46.647Z,101398.03
2023-09-08T05:50:13.208Z,101393.06
2023-09-08T05:52:39.749Z,101393.34
2023-09-08T05:55:06.586Z,101396.47
2023-09-08T05:57:33.087Z,101404.81
2023-09-08T06:00:01.004Z,101401.94
2023-09-08T06:02:27.742Z,101401.13
2023-09-08T06:04:54.318Z,101406.97
2023-09-08T06:07:22.018Z,101407.03
2023-09-08T06:09:48.577Z,101407.47
2023-09-08T06:12:15.181Z,101404.22
2023-09-08T06:14:43.920Z,101403.81
2023-09-08T06:17:12.079Z,101397.69
2023-09-08T06:19:38.662Z,101412.03
2023-09-08T06:22:05.207Z,101412.28
2023-09-08T06:24:31.666Z,101409.19
2023-09-08T06:26:58.188Z,101419.94
2023-09-08T06:29:24.710Z,101413.53
2023-09-08T06:31:51.201Z,101425.97
2023-09-08T06:34:19.283Z,101416.69
2023-09-08T06:36:46.001Z,101421.69
2023-09-08T06:39:12.575Z,101424.78
2023-09-08T06:41:39.118Z,101424.03
2023-09-08T06:44:06.458Z,101423.22
2023-09-08T06:46:33.045Z,101427.44
2023-09-08T06:48:59.561Z,101422.91
2023-09-08T06:51:27.519Z,101427.13
2023-09-08T06:53:57.860Z,101423.59
2023-09-08T06:56:24.473Z,101422.81
2023-09-08T06:58:50.952Z,101417.47
2023-09-08T07:01:17.625Z,101427.28
2023-09-08T07:03:44.391Z,101418.19
2023-09-08T07:06:11.097Z,101431.69
2023-09-08T07:08:39.018Z,101424.28
2023-09-08T07:11:05.650Z,101430.31
2023-09-08T07:13:32.310Z,101436.16
2023-09-08T07:15:58.915Z,101422.47
2023-09-08T07:18:25.784Z,101420.41
2023-09-08T07:20:52.316Z,101422.09
2023-09-08T07:23:18.998Z,101424.59
2023-09-08T07:25:47.930Z,101426.91
2023-09-08T07:28:14.546Z,101425.88
2023-09-08T07:30:41.231Z,101432.13
2023-09-08T07:33:08.024Z,101421.31
2023-09-08T07:35:37.633Z,101425.28
2023-09-08T07:38:04.426Z,101431.28
2023-09-08T07:40:31.050Z,101427.13
2023-09-08T07:42:58.887Z,101441.25
2023-09-08T07:45:25.532Z,101428.34
2023-09-08T07:47:52.471Z,101429.38
2023-09-08T07:50:21.324Z,101428.13
2023-09-08T07:52:48.148Z,101426.66
2023-09-08T07:55:15.013Z,101430.78
2023-09-08T07:57:43.226Z,101427.63
2023-09-08T08:00:12.153Z,101433.63
2023-09-08T08:02:38.914Z,101428.59
2023-09-08T08:05:06.145Z,101423.34
2023-09-08T08:07:32.623Z,101424.31
2023-09-08T08:09:59.317Z,101430.13
2023-09-08T08:12:25.797Z,101425.88
2023-09-08T08:14:52.397Z,101421.63
2023-09-08T08:17:20.263Z,101426.09
2023-09-08T08:19:46.839Z,101429.00
2023-09-08T08:22:13.374Z,101423.50
2023-09-08T08:24:40.099Z,101429.66
2023-09-08T08:27:06.652Z,101430.84
2023-09-08T08:29:33.184Z,101431.16
2023-09-08T08:31:59.685Z,101428.19
2023-09-08T08:34:27.572Z,101427.06
2023-09-08T08:36:54.187Z,101423.22
2023-09-08T08:39:20.792Z,101428.34
2023-09-08T08:41:47.354Z,101430.41
2023-09-08T08:44:16.423Z,101417.84
2023-09-08T08:46:44.144Z,101425.44
2023-09-08T08:49:12.108Z,101421.34
2023-09-08T08:51:41.614Z,101427.09
2023-09-08T08:54:08.171Z,101420.53
2023-09-08T08:56:37.278Z,101426.13
2023-09-08T08:59:05.032Z,101422.03
2023-09-08T09:01:32.440Z,101411.66
2023-09-08T09:03:59.369Z,101423.19
2023-09-08T09:06:26.040Z,101413.63
2023-09-08T09:08:53.934Z,101422.44
2023-09-08T09:11:20.478Z,101425.66
2023-09-08T09:13:47.051Z,101421.44
2023-09-08T09:16:13.569Z,101425.91
2023-09-08T09:18:57.303Z,101429.09
2023-09-08T09:21:24.552Z,101428.53
2023-09-08T09:23:51.170Z,101428.91
2023-09-08T09:26:26.661Z,101428.47
2023-09-08T09:28:53.484Z,101432.47
2023-09-08T09:31:20.098Z,101437.69
2023-09-08T09:33:46.665Z,101426.06
2023-09-08T09:36:21.812Z,101436.25
2023-09-08T09:38:48.390Z,101427.38
2023-09-08T09:41:15.064Z,101424.97
2023-09-08T09:43:43.605Z,101423.28
2023-09-08T09:46:10.433Z,101420.47
2023-09-08T09:48:37.616Z,101425.28
2023-09-08T09:51:16.756Z,101424.75
2023-09-08T09:53:43.870Z,101420.00
2023-09-08T09:56:11.984Z,101417.03
2023-09-08T09:58:39.113Z,101420.06
2023-09-08T10:01:07.378Z,101412.91
2023-09-08T10:03:34.474Z,101407.66
2023-09-08T10:06:01.268Z,101409.78
2023-09-08T10:08:28.549Z,101418.28
2023-09-08T10:10:55.954Z,101404.81
2023-09-08T10:13:28.034Z,101412.44
2023-09-08T10:15:58.320Z,101415.41
2023-09-08T10:18:27.747Z,101407.13
2023-09-08T10:20:57.634Z,101412.75
2023-09-08T10:23:32.544Z,101417.16
2023-09-08T10:26:04.079Z,101409.84
2023-09-08T10:28:31.651Z,101415.44
2023-09-08T10:30:58.766Z,101409.25
2023-09-08T10:33:27.765Z,101412.84
2023-09-08T10:35:54.982Z,101408.59
2023-09-08T10:38:26.451Z,101404.66
2023-09-08T10:40:53.358Z,101398.22
2023-09-08T10:43:20.410Z,101405.41
2023-09-08T10:45:47.222Z,101403.00
2023-09-08T10:48:15.008Z,101398.66
2023-09-08T10:50:43.138Z,101397.06
2023-09-08T10:53:14.126Z,101398.22
2023-09-08T10:55:42.050Z,101393.94
2023-09-08T10:58:10.738Z,101396.03
2023-09-08T11:00:47.928Z,101393.66
2023-09-08T11:03:15.222Z,101397.81
2023-09-08T11:05:43.967Z,101405.03
2023-09-08T11:08:10.446Z,101409.75
2023-09-08T11:10:37.092Z,101404.13
2023-09-08T11:13:03.726Z,101405.03
2023-09-08T11:15:30.260Z,101401.25
2023-09-08T11:17:56.966Z,101399.13
2023-09-08T11:20:27.451Z,101395.88
2023-09-08T11:22:55.563Z,101398.88
2023-09-08T11:25:22.107Z,101403.84
2023-09-08T11:27:49.686Z,101400.34
2023-09-08T11:30:16.275Z,101398.47
2023-09-08T11:32:42.872Z,101399.28
2023-09-08T11:35:11.069Z,101397.94
2023-09-08T11:37:38.721Z,101396.03
2023-09-08T11:40:08.217Z,101393.31
2023-09-08T11:42:34.804Z,101393.88
2023-09-08T11:45:01.486Z,101392.25
2023-09-08T11:47:28.096Z,101388.19
2023-09-08T11:49:54.688Z,101389.63
2023-09-08T11:52:23.839Z,101388.00
2023-09-08T11:55:05.823Z,101388.66
2023-09-08T11:57:35.766Z,101385.34
2023-09-08T12:00:03.432Z,101378.25
2023-09-08T12:02:30.080Z,101385.66
2023-09-08T12:04:56.598Z,101382.13
2023-09-08T12:07:23.159Z,101376.38
2023-09-08T12:09:49.816Z,101378.84
2023-09-08T12:12:16.385Z,101378.59
2023-09-08T12:14:47.574Z,101378.84
2023-09-08T12:17:14.851Z,101379.41
2023-09-08T12:19:41.382Z,101384.63
2023-09-08T12:22:08.226Z,101386.25
2023-09-08T12:24:56.966Z,101381.59
2023-09-08T12:27:24.322Z,101377.78
2023-09-08T12:29:56.554Z,101378.88
2023-09-08T12:32:23.755Z,101375.88
2023-09-08T12:34:51.426Z,101371.47
2023-09-08T12:37:21.464Z,101371.22
2023-09-08T12:39:48.022Z,101376.13
2023-09-08T12:42:14.616Z,101376.13
2023-09-08T12:44:41.427Z,101371.19
2023-09-08T12:47:11.333Z,101374.19
2023-09-08T12:49:37.960Z,101379.94
2023-09-08T12:52:05.172Z,101372.28
2023-09-08T12:54:31.714Z,101371.69
2023-09-08T12:56:58.222Z,101373.59
2023-09-08T12:59:24.767Z,101367.00
2023-09-08T13:01:51.501Z,101364.00
2023-09-08T13:04:19.513Z,101358.47
2023-09-08T13:06:46.234Z,101362.00
2023-09-08T13:09:12.725Z,101359.50
2023-09-08T13:11:39.321Z,101357.31
2023-09-08T13:14:05.842Z,101358.41
2023-09-08T13:16:32.498Z,101355.63
2023-09-08T13:18:59.461Z,101353.69
2023-09-08T13:21:27.435Z,101353.94
2023-09-08T13:23:53.926Z,101346.78
2023-09-08T13:26:20.527Z,101356.34
2023-09-08T13:28:47.045Z,101345.66
2023-09-08T13:31:13.610Z,101345.94
2023-09-08T13:33:40.130Z,101345.94
2023-09-08T13:36:07.478Z,101341.84
2023-09-08T13:38:36.350Z,101346.47
2023-09-08T13:41:03.032Z,101337.38
2023-09-08T13:43:29.513Z,101338.16
2023-09-08T13:45:56.034Z,101342.22
2023-09-08T13:48:24.963Z,101337.00
2023-09-08T13:50:54.005Z,101342.22
2023-09-08T13:53:21.553Z,101330.72
2023-09-08T13:55:51.325Z,101334.00
2023-09-08T13:58:20.151Z,101330.16
2023-09-08T14:00:47.890Z,101324.69
2023-09-08T14:03:21.985Z,101335.59
2023-09-08T14:05:54.089Z,101328.50
2023-09-08T14:08:28.218Z,101330.16
2023-09-08T14:13:26.880Z,101321.09
2023-09-08T14:15:54.484Z,101331.47
2023-09-08T14:18:21.165Z,101332.56
2023-09-08T14:20:47.638Z,101329.00
2023-09-08T14:23:14.302Z,101318.06
2023-09-08T14:25:40.928Z,101319.97
2023-09-08T14:28:08.829Z,101325.44
2023-09-08T14:30:35.920Z,101317.50
2023-09-08T14:33:02.579Z,101317.50
2023-09-08T14:35:29.090Z,101314.50
2023-09-08T14:37:55.671Z,101319.72
2023-09-08T14:40:23.999Z,101318.63
2023-09-08T14:42:53.898Z,101319.44
2023-09-08T14:45:22.395Z,101309.34
2023-09-08T14:47:49.022Z,101316.47
2023-09-08T14:50:15.641Z,101308.25
2023-09-08T14:52:42.166Z,101309.34
2023-09-08T14:55:09.111Z,101307.16
2023-09-08T14:57:35.761Z,101307.72
2023-09-08T15:00:03.152Z,101307.75
2023-09-08T15:02:31.145Z,101302.84
2023-09-08T15:04:57.758Z,101304.47
2023-09-08T15:07:24.354Z,101302.03
2023-09-08T15:09:50.917Z,101309.19
2023-09-08T15:12:17.477Z,101308.38
2023-09-08T15:14:44.072Z,101307.63
2023-09-08T15:17:11.760Z,101309.53
2023-09-08T15:19:39.770Z,101303.19
2023-09-08T15:22:06.256Z,101304.00
2023-09-08T15:24:32.744Z,101304.78
2023-09-08T15:26:59.278Z,101301.19
2023-09-08T15:29:25.791Z,101302.53
2023-09-08T15:31:52.394Z,101306.09
2023-09-08T15:34:18.997Z,101294.66
2023-09-08T15:36:46.818Z,101292.22
2023-09-08T15:39:13.433Z,101296.13
2023-09-08T15:41:40.061Z,101284.88
2023-09-08T15:44:06.616Z,101286.75
2023-09-08T15:46:33.158Z,101285.91
2023-09-08T15:48:59.730Z,101288.06
2023-09-08T15:51:26.275Z,101286.41
2023-09-08T15:53:54.156Z,101285.25
2023-09-08T15:56:20.637Z,101282.50
2023-09-08T15:58:47.223Z,101284.13
2023-09-08T16:01:13.805Z,101281.91
2023-09-08T16:03:42.767Z,101290.63
2023-09-08T16:06:09.652Z,101281.84
2023-09-08T16:08:37.571Z,101281.03
2023-09-08T16:11:05.890Z,101281.84
2023-09-08T16:13:32.739Z,101276.94
2023-09-08T16:15:59.352Z,101282.41
2023-09-08T16:18:26.021Z,101279.66
2023-09-08T16:20:53.275Z,101283.47
2023-09-08T16:23:19.887Z,101286.47
2023-09-08T16:25:46.484Z,101284.00
2023-09-08T16:28:14.319Z,101281.78
2023-09-08T16:30:40.915Z,101282.31
2023-09-08T16:33:07.471Z,101282.25
2023-09-08T16:35:34.685Z,101273.22
2023-09-08T16:38:01.227Z,101282.16
2023-09-08T16:40:27.809Z,101276.97
2023-09-08T16:42:54.369Z,101282.94
2023-09-08T16:45:22.169Z,101280.75
2023-09-08T16:47:48.703Z,101278.78
2023-09-08T16:50:15.236Z,101287.78
2023-09-08T16:52:41.905Z,101277.63
2023-09-08T16:55:08.898Z,101283.59
2023-09-08T16:57:35.429Z,101283.84
2023-09-08T17:00:02.298Z,101283.56
2023-09-08T17:02:30.321Z,101284.06
2023-09-08T17:04:57.048Z,101277.22
2023-09-08T17:07:23.716Z,101277.47
2023-09-08T17:09:50.338Z,101276.66
2023-09-08T17:12:16.878Z,101274.47
2023-09-08T17:14:43.543Z,101273.06
2023-09-08T17:17:10.085Z,101279.00
2023-09-08T17:19:37.907Z,101272.13
2023-09-08T17:22:04.584Z,101276.50
2023-09-08T17:24:31.078Z,101275.09
2023-09-08T17:26:57.968Z,101271.22
2023-09-08T17:29:24.599Z,101271.44
2023-09-08T17:31:51.135Z,101272.19
2023-09-08T17:34:19.577Z,101276.78
2023-09-08T17:36:47.433Z,101272.34
2023-09-08T17:39:14.042Z,101276.91
2023-09-08T17:41:40.521Z,101274.38
2023-09-08T17:44:07.080Z,101275.41
2023-09-08T17:46:33.687Z,101270.97
2023-09-08T17:49:00.245Z,101269.72
2023-09-08T17:51:26.745Z,101278.09
2023-09-08T17:53:54.615Z,101282.09
2023-09-08T17:56:21.080Z,101286.88
2023-09-08T17:58:47.604Z,101285.41
2023-09-08T18:01:14.367Z,101281.47
2023-09-08T18:03:41.213Z,101285.72
2023-09-08T18:06:08.076Z,101288.28
2023-09-08T18:08:34.609Z,101289.47
2023-09-08T18:11:03.398Z,101288.00
2023-09-08T18:13:29.966Z,101291.16
2023-09-08T18:15:58.274Z,101293.72
2023-09-08T18:18:24.878Z,101290.00
2023-09-08T18:20:51.525Z,101289.53
2023-09-08T18:23:18.453Z,101294.56
2023-09-08T18:25:45.161Z,101296.25
2023-09-08T18:28:14.920Z,101297.94
2023-09-08T18:30:41.950Z,101301.91
2023-09-08T18:33:08.568Z,101297.09
2023-09-08T18:35:35.254Z,101305.03
2023-09-08T18:38:02.089Z,101302.91
2023-09-08T18:40:28.629Z,101312.53
2023-09-08T18:42:55.165Z,101302.63
2023-09-08T18:45:23.154Z,101303.53
2023-09-08T18:47:49.792Z,101317.03
2023-09-08T18:50:16.389Z,101324.94
2023-09-08T18:52:42.970Z,101326.94
2023-09-08T18:55:09.583Z,101329.78
2023-09-08T18:57:36.102Z,101327.22
2023-09-08T19:00:02.694Z,101329.78
2023-09-08T19:02:30.755Z,101325.31
2023-09-08T19:04:57.500Z,101324.34
2023-09-08T19:07:24.159Z,101332.72
2023-09-08T19:09:50.654Z,101329.06
2023-09-08T19:12:17.197Z,101330.81
2023-09-08T19:14:43.743Z,101335.06
2023-09-08T19:17:10.315Z,101330.91
2023-09-08T19:19:38.128Z,101332.44
2023-09-08T19:22:04.622Z,101333.16
2023-09-08T19:24:31.203Z,101328.63
2023-09-08T19:26:57.782Z,101335.22
2023-09-08T19:29:24.263Z,101332.03
2023-09-08T19:31:50.844Z,101335.66
2023-09-08T19:34:17.386Z,101336.38
2023-09-08T19:36:45.225Z,101342.25
2023-09-08T19:39:11.923Z,101338.94
2023-09-08T19:41:38.393Z,101339.38
2023-09-08T19:44:05.260Z,101340.69
2023-09-08T19:46:35.664Z,101337.00
2023-09-08T19:49:02.560Z,101333.69
2023-09-08T19:51:29.237Z,101334.38
2023-09-08T19:53:57.315Z,101339.84
2023-09-08T19:56:24.573Z,101330.75
2023-09-08T19:58:51.097Z,101336.84
2023-09-08T20:01:18.103Z,101340.50
2023-09-08T20:03:44.661Z,101336.78
2023-09-08T20:06:13.826Z,101331.03
2023-09-08T20:08:40.381Z,101327.69
2023-09-08T20:11:08.497Z,101326.50
2023-09-08T20:13:35.385Z,101333.66
2023-09-08T20:16:04.218Z,101327.03
2023-09-08T20:18:30.897Z,101328.28
2023-09-08T20:20:59.299Z,101328.53
2023-09-08T20:23:25.889Z,101330.88
2023-09-08T20:25:52.604Z,101326.94
2023-09-08T20:28:20.681Z,101326.56
2023-09-08T20:30:58.387Z,101327.03
2023-09-08T20:33:36.092Z,101326.66
2023-09-08T20:36:02.740Z,101328.75
2023-09-08T20:38:29.439Z,101322.13
2023-09-08T20:40:56.073Z,101326.31
2023-09-08T20:43:32.257Z,101320.72
2023-09-08T20:46:02.002Z,101314.94
2023-09-08T20:48:28.552Z,101321.00
2023-09-08T20:50:59.540Z,101325.22
2023-09-08T20:53:26.056Z,101316.94
2023-09-08T20:55:52.634Z,101312.78
2023-09-08T20:58:19.089Z,101327.38
2023-09-08T21:00:47.000Z,101323.22
2023-09-08T21:03:13.536Z,101322.88
2023-09-08T21:05:40.113Z,101323.31
2023-09-08T21:08:07.062Z,101323.94
2023-09-08T21:10:33.544Z,101322.97
2023-09-08T21:13:00.213Z,101323.63
2023-09-08T21:15:26.788Z,101320.97
2023-09-08T21:17:54.702Z,101322.31
2023-09-08T21:20:21.335Z,101322.75
2023-09-08T21:22:47.833Z,101322.13
2023-09-08T21:25:14.356Z,101320.91
2023-09-08T21:27:40.901Z,101328.59
2023-09-08T21:30:08.391Z,101320.56
2023-09-08T21:32:34.958Z,101326.19
2023-09-08T21:35:02.912Z,101324.72
2023-09-08T21:37:29.445Z,101319.13
2023-09-08T21:39:56.101Z,101321.00
2023-09-08T21:42:22.657Z,101317.47
2023-09-08T21:44:49.203Z,101319.38
2023-09-08T21:47:15.698Z,101314.19
2023-09-08T21:49:42.348Z,101316.28
2023-09-08T21:52:10.700Z,101318.34
2023-09-08T21:54:38.228Z,101313.78
2023-09-08T21:57:05.255Z,101324.38
2023-09-08T21:59:31.847Z,101318.97
2023-09-08T22:01:58.359Z,101321.06
2023-09-08T22:04:25.094Z,101321.13
2023-09-08T22:06:51.722Z,101316.75
2023-09-08T22:09:19.992Z,101309.28
2023-09-08T22:11:46.703Z,101316.16
2023-09-08T22:14:14.208Z,101315.56
2023-09-08T22:16:40.929Z,101312.44
2023-09-08T22:19:07.950Z,101306.84
2023-09-08T22:21:34.558Z,101315.41
2023-09-08T22:24:01.232Z,101307.94
2023-09-08T22:26:29.193Z,101309.19
2023-09-08T22:28:55.749Z,101309.41
2023-09-08T22:31:22.346Z,101307.78
2023-09-08T22:33:49.065Z,101305.09
2023-09-08T22:36:16.338Z,101308.63
2023-09-08T22:38:42.861Z,101309.03
2023-09-08T22:41:09.397Z,101303.25
2023-09-08T22:43:37.405Z,101303.63
2023-09-08T22:46:04.110Z,101309.25
2023-09-08T22:48:30.625Z,101314.44
2023-09-08T22:50:57.121Z,101306.81
2023-09-08T22:53:23.667Z,101307.84
2023-09-08T22:55:50.322Z,101312.41
2023-09-08T22:58:16.980Z,101311.41
2023-09-08T23:00:44.908Z,101306.22
2023-09-08T23:03:11.560Z,101307.88
2023-09-08T23:05:38.219Z,101311.63
2023-09-08T23:08:05.145Z,101304.59
2023-09-08T23:10:31.672Z,101305.63
2023-09-08T23:12:58.181Z,101306.66
2023-09-08T23:15:24.728Z,101307.91
2023-09-08T23:17:52.764Z,101312.47
2023-09-08T23:20:19.391Z,101307.31
2023-09-08T23:22:45.926Z,101312.47
2023-09-08T23:25:12.463Z,101302.94
2023-09-08T23:27:39.346Z,101300.25
2023-09-08T23:30:07.477Z,101302.13
2023-09-08T23:32:34.103Z,101303.41
2023-09-08T23:35:02.075Z,101310.03
2023-09-08T23:37:28.582Z,101296.94
2023-09-08T23:39:55.119Z,101298.81
2023-09-08T23:42:21.618Z,101295.28
2023-09-08T23:44:48.147Z,101299.03
2023-09-08T23:47:14.703Z,101292.59
2023-09-08T23:49:41.178Z,101291.97
2023-09-08T23:52:09.010Z,101290.31
2023-09-08T23:54:35.519Z,101293.44
2023-09-08T23:57:02.227Z,101293.84
2023-09-08T23:59:28.790Z,101289.91
